KHKS/HKS METAR and TAF weather

Enter ICAO airport designator
Station Type Date Time Source
KHKS METAR 2019/11/22 00:53 UTC NOAA

KHKS 220053Z 14007KT 10SM BKN039 18/13 A3009 RMK AO2 SLP183 T01780128


Station Type Date Time Source
KHKS Decoded METAR 2019/11/22 00:53 UTC NOAA

HAWKINS FIELD, MS, United States (KHKS) 32-20N 090-13W 108M
Nov 21, 2019 - 07:53 PM EST / 2019.11.22 0053 UTC
Wind: from the SE (140 degrees) at 8 MPH (7 KT):0
Visibility: 10 mile(s):0
Sky conditions: mostly cloudy
Temperature: 64.0 F (17.8 C)
Dew Point: 55.0 F (12.8 C)
Relative Humidity: 72%
Pressure (altimeter): 30.09 in. Hg (1018 hPa)
ob: KHKS 220053Z 14007KT 10SM BKN039 18/13 A3009 RMK AO2 SLP183 T01780128
cycle: 1

Station Type Date Time Source
KHKS TAF 2019/11/21 18:36 UTC NOAA

TAF KHKS 211733Z 2118/2218 16010KT P6SM BKN250
FM220000 16006KT P6SM FEW100 OVC250
FM221200 18005KT P6SM VCSH SCT060 OVC090

Example: see airport list